sensor_id;sensor_type;location;lat;lon;timestamp;temperature;humidity
19799;DHT22;10059;59.850;10.454;2023-06-24T00:02:03;15.80;99.90
19799;DHT22;10059;59.850;10.454;2023-06-24T00:04:30;15.80;99.90
19799;DHT22;10059;59.850;10.454;2023-06-24T00:06:57;16.00;99.90
19799;DHT22;10059;59.850;10.454;2023-06-24T00:09:25;15.90;99.90
19799;DHT22;10059;59.850;10.454;2023-06-24T00:11:53;16.00;99.90
19799;DHT22;10059;59.850;10.454;2023-06-24T00:14:21;15.80;99.90
19799;DHT22;10059;59.850;10.454;2023-06-24T00:16:50;15.80;99.90
19799;DHT22;10059;59.850;10.454;2023-06-24T00:19:18;15.80;99.90
19799;DHT22;10059;59.850;10.454;2023-06-24T00:21:46;15.70;99.90
19799;DHT22;10059;59.850;10.454;2023-06-24T00:24:13;15.60;99.90
19799;DHT22;10059;59.850;10.454;2023-06-24T00:26:40;15.50;99.90
19799;DHT22;10059;59.850;10.454;2023-06-24T00:29:06;15.50;99.90
19799;DHT22;10059;59.850;10.454;2023-06-24T00:31:35;15.40;99.90
19799;DHT22;10059;59.850;10.454;2023-06-24T00:34:01;15.20;99.90
19799;DHT22;10059;59.850;10.454;2023-06-24T00:36:28;15.30;99.90
19799;DHT22;10059;59.850;10.454;2023-06-24T00:38:57;15.20;99.90
19799;DHT22;10059;59.850;10.454;2023-06-24T00:41:27;15.10;99.90
19799;DHT22;10059;59.850;10.454;2023-06-24T00:43:54;15.00;99.90
19799;DHT22;10059;59.850;10.454;2023-06-24T00:46:23;15.00;99.90
19799;DHT22;10059;59.850;10.454;2023-06-24T00:48:52;15.10;99.90
19799;DHT22;10059;59.850;10.454;2023-06-24T00:51:19;15.00;99.90
19799;DHT22;10059;59.850;10.454;2023-06-24T00:53:46;15.20;99.90
19799;DHT22;10059;59.850;10.454;2023-06-24T00:56:16;15.30;99.90
19799;DHT22;10059;59.850;10.454;2023-06-24T00:58:44;15.40;99.90
19799;DHT22;10059;59.850;10.454;2023-06-24T01:01:12;15.50;99.90
19799;DHT22;10059;59.850;10.454;2023-06-24T01:03:40;15.50;99.90
19799;DHT22;10059;59.850;10.454;2023-06-24T01:06:09;15.50;99.90
19799;DHT22;10059;59.850;10.454;2023-06-24T01:08:36;15.70;99.90
19799;DHT22;10059;59.850;10.454;2023-06-24T01:11:03;15.70;99.90
19799;DHT22;10059;59.850;10.454;2023-06-24T01:13:30;15.90;99.90
19799;DHT22;10059;59.850;10.454;2023-06-24T01:16:00;15.90;99.90
19799;DHT22;10059;59.850;10.454;2023-06-24T01:18:34;15.90;99.90
19799;DHT22;10059;59.850;10.454;2023-06-24T01:21:05;15.90;99.90
19799;DHT22;10059;59.850;10.454;2023-06-24T01:27:19;15.60;99.90
19799;DHT22;10059;59.850;10.454;2023-06-24T01:29:57;15.60;99.90
19799;DHT22;10059;59.850;10.454;2023-06-24T01:32:33;15.40;99.90
19799;DHT22;10059;59.850;10.454;2023-06-24T01:35:07;15.30;99.90
19799;DHT22;10059;59.850;10.454;2023-06-24T01:37:39;15.30;99.90
19799;DHT22;10059;59.850;10.454;2023-06-24T01:40:11;15.40;99.90
19799;DHT22;10059;59.850;10.454;2023-06-24T01:42:41;15.30;99.90
19799;DHT22;10059;59.850;10.454;2023-06-24T01:45:12;15.30;99.90
19799;DHT22;10059;59.850;10.454;2023-06-24T01:47:43;15.10;99.90
19799;DHT22;10059;59.850;10.454;2023-06-24T01:50:12;14.80;99.90
19799;DHT22;10059;59.850;10.454;2023-06-24T01:52:43;14.80;99.90
19799;DHT22;10059;59.850;10.454;2023-06-24T01:55:12;14.90;99.90
19799;DHT22;10059;59.850;10.454;2023-06-24T01:57:41;15.00;99.90
19799;DHT22;10059;59.850;10.454;2023-06-24T02:00:09;15.20;99.90
19799;DHT22;10059;59.850;10.454;2023-06-24T02:02:38;15.30;99.90
19799;DHT22;10059;59.850;10.454;2023-06-24T02:05:08;15.40;99.90
19799;DHT22;10059;59.850;10.454;2023-06-24T02:07:36;15.40;99.90
19799;DHT22;10059;59.850;10.454;2023-06-24T02:10:05;15.50;99.90
19799;DHT22;10059;59.850;10.454;2023-06-24T02:12:33;15.50;99.90
19799;DHT22;10059;59.850;10.454;2023-06-24T02:15:01;15.60;99.90
19799;DHT22;10059;59.850;10.454;2023-06-24T02:17:30;15.60;99.90
19799;DHT22;10059;59.850;10.454;2023-06-24T02:19:57;15.70;99.90
19799;DHT22;10059;59.850;10.454;2023-06-24T02:22:27;15.80;99.90
19799;DHT22;10059;59.850;10.454;2023-06-24T02:24:54;15.80;99.90
19799;DHT22;10059;59.850;10.454;2023-06-24T02:27:21;15.90;99.90
19799;DHT22;10059;59.850;10.454;2023-06-24T02:29:50;16.00;99.90
19799;DHT22;10059;59.850;10.454;2023-06-24T02:32:18;16.00;99.90
19799;DHT22;10059;59.850;10.454;2023-06-24T02:34:45;16.10;99.90
19799;DHT22;10059;59.850;10.454;2023-06-24T02:37:12;16.00;99.90
19799;DHT22;10059;59.850;10.454;2023-06-24T02:39:41;16.00;99.90
19799;DHT22;10059;59.850;10.454;2023-06-24T02:42:10;16.00;99.90
19799;DHT22;10059;59.850;10.454;2023-06-24T02:44:37;16.00;99.90
19799;DHT22;10059;59.850;10.454;2023-06-24T02:47:05;16.00;99.90
19799;DHT22;10059;59.850;10.454;2023-06-24T02:49:35;16.00;99.90
19799;DHT22;10059;59.850;10.454;2023-06-24T02:52:03;16.10;99.90
19799;DHT22;10059;59.850;10.454;2023-06-24T02:54:30;16.10;99.90
19799;DHT22;10059;59.850;10.454;2023-06-24T02:56:59;16.20;99.90
19799;DHT22;10059;59.850;10.454;2023-06-24T02:59:26;16.30;99.90
19799;DHT22;10059;59.850;10.454;2023-06-24T03:01:53;16.30;99.90
19799;DHT22;10059;59.850;10.454;2023-06-24T03:04:21;16.30;99.90
19799;DHT22;10059;59.850;10.454;2023-06-24T03:06:48;16.30;99.90
19799;DHT22;10059;59.850;10.454;2023-06-24T03:09:16;16.40;99.90
19799;DHT22;10059;59.850;10.454;2023-06-24T03:11:44;16.30;99.90
19799;DHT22;10059;59.850;10.454;2023-06-24T03:14:12;16.30;99.90
19799;DHT22;10059;59.850;10.454;2023-06-24T03:16:40;16.30;99.90
19799;DHT22;10059;59.850;10.454;2023-06-24T03:19:07;16.20;99.90
19799;DHT22;10059;59.850;10.454;2023-06-24T03:21:33;16.20;99.90
19799;DHT22;10059;59.850;10.454;2023-06-24T03:24:00;16.20;99.90
19799;DHT22;10059;59.850;10.454;2023-06-24T03:26:32;16.30;99.90
19799;DHT22;10059;59.850;10.454;2023-06-24T03:28:59;16.40;99.90
19799;DHT22;10059;59.850;10.454;2023-06-24T03:31:27;16.40;99.90
19799;DHT22;10059;59.850;10.454;2023-06-24T03:33:54;16.40;99.90
19799;DHT22;10059;59.850;10.454;2023-06-24T03:36:21;16.50;99.90
19799;DHT22;10059;59.850;10.454;2023-06-24T03:38:49;16.50;99.90
19799;DHT22;10059;59.850;10.454;2023-06-24T03:41:16;16.50;99.90
19799;DHT22;10059;59.850;10.454;2023-06-24T03:43:43;16.50;99.90
19799;DHT22;10059;59.850;10.454;2023-06-24T03:46:10;16.60;99.90
19799;DHT22;10059;59.850;10.454;2023-06-24T03:48:38;16.60;99.90
19799;DHT22;10059;59.850;10.454;2023-06-24T03:51:05;16.50;99.90
19799;DHT22;10059;59.850;10.454;2023-06-24T03:53:32;16.60;99.90
19799;DHT22;10059;59.850;10.454;2023-06-24T03:55:59;16.60;99.90
19799;DHT22;10059;59.850;10.454;2023-06-24T03:58:26;16.60;99.90
19799;DHT22;10059;59.850;10.454;2023-06-24T04:00:53;16.70;99.90
19799;DHT22;10059;59.850;10.454;2023-06-24T04:03:22;16.60;99.90
19799;DHT22;10059;59.850;10.454;2023-06-24T04:05:53;16.70;99.90
19799;DHT22;10059;59.850;10.454;2023-06-24T04:08:20;16.60;99.90
19799;DHT22;10059;59.850;10.454;2023-06-24T04:10:47;16.80;99.90
19799;DHT22;10059;59.850;10.454;2023-06-24T04:13:13;16.80;99.90
19799;DHT22;10059;59.850;10.454;2023-06-24T04:15:40;16.90;99.90
19799;DHT22;10059;59.850;10.454;2023-06-24T04:18:08;17.00;99.90
19799;DHT22;10059;59.850;10.454;2023-06-24T04:20:35;16.80;99.90
19799;DHT22;10059;59.850;10.454;2023-06-24T04:23:03;16.90;99.90
19799;DHT22;10059;59.850;10.454;2023-06-24T04:25:30;17.10;99.90
19799;DHT22;10059;59.850;10.454;2023-06-24T04:27:57;17.30;99.90
19799;DHT22;10059;59.850;10.454;2023-06-24T04:30:24;17.40;99.90
19799;DHT22;10059;59.850;10.454;2023-06-24T04:32:51;17.60;99.90
19799;DHT22;10059;59.850;10.454;2023-06-24T04:35:17;17.60;99.90
19799;DHT22;10059;59.850;10.454;2023-06-24T04:37:44;17.70;99.90
19799;DHT22;10059;59.850;10.454;2023-06-24T04:40:12;17.80;99.90
19799;DHT22;10059;59.850;10.454;2023-06-24T04:42:40;17.80;99.90
19799;DHT22;10059;59.850;10.454;2023-06-24T04:45:07;17.90;99.90
19799;DHT22;10059;59.850;10.454;2023-06-24T04:47:34;18.00;99.90
19799;DHT22;10059;59.850;10.454;2023-06-24T04:50:01;18.10;99.90
19799;DHT22;10059;59.850;10.454;2023-06-24T04:52:28;18.20;99.90
19799;DHT22;10059;59.850;10.454;2023-06-24T04:54:55;18.10;99.90
19799;DHT22;10059;59.850;10.454;2023-06-24T04:57:27;18.20;99.90
19799;DHT22;10059;59.850;10.454;2023-06-24T04:59:55;18.20;99.90
19799;DHT22;10059;59.850;10.454;2023-06-24T05:02:22;18.30;99.90
19799;DHT22;10059;59.850;10.454;2023-06-24T05:04:49;18.20;99.90
19799;DHT22;10059;59.850;10.454;2023-06-24T05:07:16;18.10;99.90
19799;DHT22;10059;59.850;10.454;2023-06-24T05:09:43;18.10;99.90
19799;DHT22;10059;59.850;10.454;2023-06-24T05:12:09;18.30;99.90
19799;DHT22;10059;59.850;10.454;2023-06-24T05:14:38;18.40;99.90
19799;DHT22;10059;59.850;10.454;2023-06-24T05:17:05;18.60;99.90
19799;DHT22;10059;59.850;10.454;2023-06-24T05:19:32;19.00;99.90
19799;DHT22;10059;59.850;10.454;2023-06-24T05:21:59;19.10;99.90
19799;DHT22;10059;59.850;10.454;2023-06-24T05:24:26;19.20;99.90
19799;DHT22;10059;59.850;10.454;2023-06-24T05:26:52;19.20;99.90
19799;DHT22;10059;59.850;10.454;2023-06-24T05:29:19;19.20;99.90
19799;DHT22;10059;59.850;10.454;2023-06-24T05:31:47;19.00;99.90
19799;DHT22;10059;59.850;10.454;2023-06-24T05:34:14;19.10;99.90
19799;DHT22;10059;59.850;10.454;2023-06-24T05:36:41;19.20;99.90
19799;DHT22;10059;59.850;10.454;2023-06-24T05:39:08;19.40;99.90
19799;DHT22;10059;59.850;10.454;2023-06-24T05:41:36;19.30;99.90
19799;DHT22;10059;59.850;10.454;2023-06-24T05:44:04;19.50;99.90
19799;DHT22;10059;59.850;10.454;2023-06-24T05:46:32;19.30;99.90
19799;DHT22;10059;59.850;10.454;2023-06-24T05:49:00;19.00;99.90
19799;DHT22;10059;59.850;10.454;2023-06-24T05:51:27;19.00;99.90
19799;DHT22;10059;59.850;10.454;2023-06-24T05:53:54;18.90;99.90
19799;DHT22;10059;59.850;10.454;2023-06-24T05:56:21;18.80;99.90
19799;DHT22;10059;59.850;10.454;2023-06-24T05:58:48;18.80;99.90
19799;DHT22;10059;59.850;10.454;2023-06-24T06:01:15;18.80;99.90
19799;DHT22;10059;59.850;10.454;2023-06-24T06:03:42;18.90;99.90
19799;DHT22;10059;59.850;10.454;2023-06-24T06:06:10;19.00;99.90
19799;DHT22;10059;59.850;10.454;2023-06-24T06:08:37;19.20;99.90
19799;DHT22;10059;59.850;10.454;2023-06-24T06:11:04;19.30;99.90
19799;DHT22;10059;59.850;10.454;2023-06-24T06:13:31;19.20;99.90
19799;DHT22;10059;59.850;10.454;2023-06-24T06:15:58;19.20;99.90
19799;DHT22;10059;59.850;10.454;2023-06-24T06:18:25;19.20;99.90
19799;DHT22;10059;59.850;10.454;2023-06-24T06:20:51;19.00;99.90
19799;DHT22;10059;59.850;10.454;2023-06-24T06:23:20;18.90;99.90
19799;DHT22;10059;59.850;10.454;2023-06-24T06:25:46;19.10;99.90
19799;DHT22;10059;59.850;10.454;2023-06-24T06:28:13;19.60;99.90
19799;DHT22;10059;59.850;10.454;2023-06-24T06:30:40;19.70;99.90
19799;DHT22;10059;59.850;10.454;2023-06-24T06:33:07;19.80;99.90
19799;DHT22;10059;59.850;10.454;2023-06-24T06:35:34;19.80;99.90
19799;DHT22;10059;59.850;10.454;2023-06-24T06:38:00;20.40;99.90
19799;DHT22;10059;59.850;10.454;2023-06-24T06:40:29;21.30;99.90
19799;DHT22;10059;59.850;10.454;2023-06-24T06:42:56;21.60;99.90
19799;DHT22;10059;59.850;10.454;2023-06-24T06:45:22;21.90;99.90
19799;DHT22;10059;59.850;10.454;2023-06-24T06:47:49;21.80;99.90
19799;DHT22;10059;59.850;10.454;2023-06-24T06:50:17;21.70;99.90
19799;DHT22;10059;59.850;10.454;2023-06-24T06:52:44;21.60;99.90
19799;DHT22;10059;59.850;10.454;2023-06-24T06:55:12;21.40;99.90
19799;DHT22;10059;59.850;10.454;2023-06-24T06:57:40;21.00;99.90
19799;DHT22;10059;59.850;10.454;2023-06-24T07:00:08;20.80;99.90
19799;DHT22;10059;59.850;10.454;2023-06-24T07:02:35;20.00;99.90
19799;DHT22;10059;59.850;10.454;2023-06-24T07:05:02;19.40;99.90
19799;DHT22;10059;59.850;10.454;2023-06-24T07:07:29;19.30;99.90
19799;DHT22;10059;59.850;10.454;2023-06-24T07:09:55;19.60;99.90
19799;DHT22;10059;59.850;10.454;2023-06-24T07:12:22;19.80;99.90
19799;DHT22;10059;59.850;10.454;2023-06-24T07:14:51;20.00;99.90
19799;DHT22;10059;59.850;10.454;2023-06-24T07:17:18;19.70;99.90
19799;DHT22;10059;59.850;10.454;2023-06-24T07:19:44;19.80;99.90
19799;DHT22;10059;59.850;10.454;2023-06-24T07:22:11;20.10;99.90
19799;DHT22;10059;59.850;10.454;2023-06-24T07:24:38;20.20;99.90
19799;DHT22;10059;59.850;10.454;2023-06-24T07:27:06;20.40;99.90
19799;DHT22;10059;59.850;10.454;2023-06-24T07:29:32;20.20;99.90
19799;DHT22;10059;59.850;10.454;2023-06-24T07:32:01;20.40;99.90
19799;DHT22;10059;59.850;10.454;2023-06-24T07:34:29;20.60;99.90
19799;DHT22;10059;59.850;10.454;2023-06-24T07:36:56;20.70;99.90
19799;DHT22;10059;59.850;10.454;2023-06-24T07:39:23;21.00;99.90
19799;DHT22;10059;59.850;10.454;2023-06-24T07:41:49;21.10;99.90
19799;DHT22;10059;59.850;10.454;2023-06-24T07:44:16;21.50;99.90
19799;DHT22;10059;59.850;10.454;2023-06-24T07:46:44;22.00;99.90
19799;DHT22;10059;59.850;10.454;2023-06-24T07:49:12;22.40;99.90
19799;DHT22;10059;59.850;10.454;2023-06-24T07:51:39;23.20;99.90
19799;DHT22;10059;59.850;10.454;2023-06-24T07:54:06;23.40;99.90
19799;DHT22;10059;59.850;10.454;2023-06-24T07:56:33;23.40;99.90
19799;DHT22;10059;59.850;10.454;2023-06-24T07:59:00;23.70;99.90
19799;DHT22;10059;59.850;10.454;2023-06-24T08:01:27;23.30;99.90
19799;DHT22;10059;59.850;10.454;2023-06-24T08:03:54;23.80;99.90
19799;DHT22;10059;59.850;10.454;2023-06-24T08:06:22;24.00;99.90
19799;DHT22;10059;59.850;10.454;2023-06-24T08:08:49;23.50;99.90
19799;DHT22;10059;59.850;10.454;2023-06-24T08:11:16;23.20;99.90
19799;DHT22;10059;59.850;10.454;2023-06-24T08:13:43;23.80;99.90
19799;DHT22;10059;59.850;10.454;2023-06-24T08:16:10;24.20;99.90
19799;DHT22;10059;59.850;10.454;2023-06-24T08:18:37;23.90;99.90
19799;DHT22;10059;59.850;10.454;2023-06-24T08:21:05;24.50;99.90
19799;DHT22;10059;59.850;10.454;2023-06-24T08:23:33;24.00;99.90
19799;DHT22;10059;59.850;10.454;2023-06-24T08:26:00;24.70;99.90
19799;DHT22;10059;59.850;10.454;2023-06-24T08:28:26;24.30;99.90
19799;DHT22;10059;59.850;10.454;2023-06-24T08:30:53;24.30;99.90
19799;DHT22;10059;59.850;10.454;2023-06-24T08:33:20;24.10;99.90
19799;DHT22;10059;59.850;10.454;2023-06-24T08:35:47;24.40;99.90
19799;DHT22;10059;59.850;10.454;2023-06-24T08:38:14;24.50;99.90
19799;DHT22;10059;59.850;10.454;2023-06-24T08:40:42;24.60;99.90
19799;DHT22;10059;59.850;10.454;2023-06-24T08:43:10;24.60;99.90
19799;DHT22;10059;59.850;10.454;2023-06-24T08:45:37;23.60;99.90
19799;DHT22;10059;59.850;10.454;2023-06-24T08:48:04;23.40;99.90
19799;DHT22;10059;59.850;10.454;2023-06-24T08:50:35;23.70;99.90
19799;DHT22;10059;59.850;10.454;2023-06-24T08:53:05;23.90;99.90
19799;DHT22;10059;59.850;10.454;2023-06-24T08:55:36;23.80;99.90
19799;DHT22;10059;59.850;10.454;2023-06-24T08:58:04;24.20;99.90
19799;DHT22;10059;59.850;10.454;2023-06-24T09:00:31;24.90;99.90
19799;DHT22;10059;59.850;10.454;2023-06-24T09:02:58;24.90;99.90
19799;DHT22;10059;59.850;10.454;2023-06-24T09:05:25;25.10;99.90
19799;DHT22;10059;59.850;10.454;2023-06-24T09:07:53;24.40;99.90
19799;DHT22;10059;59.850;10.454;2023-06-24T09:10:30;23.80;99.90
19799;DHT22;10059;59.850;10.454;2023-06-24T09:12:58;24.50;99.90
19799;DHT22;10059;59.850;10.454;2023-06-24T09:15:29;24.40;99.90
19799;DHT22;10059;59.850;10.454;2023-06-24T09:17:56;25.10;99.90
19799;DHT22;10059;59.850;10.454;2023-06-24T09:20:23;24.60;99.90
19799;DHT22;10059;59.850;10.454;2023-06-24T09:22:50;25.10;99.90
19799;DHT22;10059;59.850;10.454;2023-06-24T09:25:17;25.10;99.90
19799;DHT22;10059;59.850;10.454;2023-06-24T09:27:48;25.00;99.90
19799;DHT22;10059;59.850;10.454;2023-06-24T09:30:18;25.40;99.90
19799;DHT22;10059;59.850;10.454;2023-06-24T09:32:47;25.60;99.90
19799;DHT22;10059;59.850;10.454;2023-06-24T09:35:14;26.20;99.90
19799;DHT22;10059;59.850;10.454;2023-06-24T09:37:41;26.60;99.90
19799;DHT22;10059;59.850;10.454;2023-06-24T09:40:08;26.10;99.90
19799;DHT22;10059;59.850;10.454;2023-06-24T09:42:35;26.30;99.90
19799;DHT22;10059;59.850;10.454;2023-06-24T09:45:05;26.30;99.90
19799;DHT22;10059;59.850;10.454;2023-06-24T09:47:32;26.60;99.90
19799;DHT22;10059;59.850;10.454;2023-06-24T09:50:00;27.00;99.90
19799;DHT22;10059;59.850;10.454;2023-06-24T09:52:27;26.30;99.90
19799;DHT22;10059;59.850;10.454;2023-06-24T09:54:55;26.10;99.90
19799;DHT22;10059;59.850;10.454;2023-06-24T09:57:25;26.00;99.90
19799;DHT22;10059;59.850;10.454;2023-06-24T09:59:53;26.10;99.90
19799;DHT22;10059;59.850;10.454;2023-06-24T10:02:21;26.10;99.90
19799;DHT22;10059;59.850;10.454;2023-06-24T10:04:48;26.20;99.90
19799;DHT22;10059;59.850;10.454;2023-06-24T10:07:17;26.00;99.90
19799;DHT22;10059;59.850;10.454;2023-06-24T10:09:44;26.40;99.90
19799;DHT22;10059;59.850;10.454;2023-06-24T10:12:11;26.10;99.90
19799;DHT22;10059;59.850;10.454;2023-06-24T10:14:38;26.60;99.90
19799;DHT22;10059;59.850;10.454;2023-06-24T10:17:05;26.30;99.90
19799;DHT22;10059;59.850;10.454;2023-06-24T10:19:38;26.80;99.90
19799;DHT22;10059;59.850;10.454;2023-06-24T10:22:08;26.50;99.90
19799;DHT22;10059;59.850;10.454;2023-06-24T10:24:38;26.40;99.90
19799;DHT22;10059;59.850;10.454;2023-06-24T10:27:08;26.50;99.90
19799;DHT22;10059;59.850;10.454;2023-06-24T10:29:36;26.60;99.90
19799;DHT22;10059;59.850;10.454;2023-06-24T10:32:04;26.10;99.90
19799;DHT22;10059;59.850;10.454;2023-06-24T10:34:39;26.50;99.90
19799;DHT22;10059;59.850;10.454;2023-06-24T10:37:09;26.50;99.90
19799;DHT22;10059;59.850;10.454;2023-06-24T10:39:39;26.90;99.90
19799;DHT22;10059;59.850;10.454;2023-06-24T10:42:25;27.10;99.90
19799;DHT22;10059;59.850;10.454;2023-06-24T10:44:52;27.00;99.90
19799;DHT22;10059;59.850;10.454;2023-06-24T10:47:21;27.20;99.60
19799;DHT22;10059;59.850;10.454;2023-06-24T10:49:47;26.90;99.40
19799;DHT22;10059;59.850;10.454;2023-06-24T10:52:14;27.20;99.90
19799;DHT22;10059;59.850;10.454;2023-06-24T10:54:45;27.50;98.40
19799;DHT22;10059;59.850;10.454;2023-06-24T10:57:12;28.00;98.00
19799;DHT22;10059;59.850;10.454;2023-06-24T10:59:39;27.80;97.60
19799;DHT22;10059;59.850;10.454;2023-06-24T11:02:07;27.00;97.80
19799;DHT22;10059;59.850;10.454;2023-06-24T11:04:42;26.80;98.80
19799;DHT22;10059;59.850;10.454;2023-06-24T11:07:09;26.60;99.60
19799;DHT22;10059;59.850;10.454;2023-06-24T11:09:36;27.10;99.80
19799;DHT22;10059;59.850;10.454;2023-06-24T11:12:06;27.20;99.50
19799;DHT22;10059;59.850;10.454;2023-06-24T11:14:33;27.40;98.90
19799;DHT22;10059;59.850;10.454;2023-06-24T11:17:01;27.40;98.40
19799;DHT22;10059;59.850;10.454;2023-06-24T11:19:29;27.30;98.80
19799;DHT22;10059;59.850;10.454;2023-06-24T11:21:59;27.50;99.10
19799;DHT22;10059;59.850;10.454;2023-06-24T11:24:26;26.70;99.60
19799;DHT22;10059;59.850;10.454;2023-06-24T11:26:53;27.10;99.00
19799;DHT22;10059;59.850;10.454;2023-06-24T11:29:21;27.60;99.30
19799;DHT22;10059;59.850;10.454;2023-06-24T11:31:48;27.20;98.80
19799;DHT22;10059;59.850;10.454;2023-06-24T11:34:15;26.60;98.30
19799;DHT22;10059;59.850;10.454;2023-06-24T11:36:42;26.80;98.20
19799;DHT22;10059;59.850;10.454;2023-06-24T11:39:20;27.30;98.40
19799;DHT22;10059;59.850;10.454;2023-06-24T11:41:47;27.20;97.80
19799;DHT22;10059;59.850;10.454;2023-06-24T11:44:14;27.00;97.70
19799;DHT22;10059;59.850;10.454;2023-06-24T11:46:42;26.90;99.00
19799;DHT22;10059;59.850;10.454;2023-06-24T11:49:09;26.90;98.60
19799;DHT22;10059;59.850;10.454;2023-06-24T11:51:37;27.60;99.20
19799;DHT22;10059;59.850;10.454;2023-06-24T11:54:13;27.30;97.80
19799;DHT22;10059;59.850;10.454;2023-06-24T11:56:41;27.50;97.50
19799;DHT22;10059;59.850;10.454;2023-06-24T11:59:15;27.20;96.60
19799;DHT22;10059;59.850;10.454;2023-06-24T12:01:45;27.80;96.40
19799;DHT22;10059;59.850;10.454;2023-06-24T12:04:12;27.30;96.60
19799;DHT22;10059;59.850;10.454;2023-06-24T12:06:39;27.50;97.40
19799;DHT22;10059;59.850;10.454;2023-06-24T12:09:07;27.30;97.10
19799;DHT22;10059;59.850;10.454;2023-06-24T12:11:34;26.80;97.00
19799;DHT22;10059;59.850;10.454;2023-06-24T12:14:01;27.20;97.30
19799;DHT22;10059;59.850;10.454;2023-06-24T12:16:28;27.30;97.50
19799;DHT22;10059;59.850;10.454;2023-06-24T12:18:56;28.10;97.60
19799;DHT22;10059;59.850;10.454;2023-06-24T12:21:23;28.60;97.50
19799;DHT22;10059;59.850;10.454;2023-06-24T12:23:50;27.50;97.30
19799;DHT22;10059;59.850;10.454;2023-06-24T12:26:17;27.60;97.00
19799;DHT22;10059;59.850;10.454;2023-06-24T12:28:44;28.00;97.80
19799;DHT22;10059;59.850;10.454;2023-06-24T12:31:11;27.90;97.60
19799;DHT22;10059;59.850;10.454;2023-06-24T12:33:37;27.80;96.00
19799;DHT22;10059;59.850;10.454;2023-06-24T12:36:06;28.30;97.20
19799;DHT22;10059;59.850;10.454;2023-06-24T12:38:33;28.40;95.90
19799;DHT22;10059;59.850;10.454;2023-06-24T12:41:01;28.30;96.00
19799;DHT22;10059;59.850;10.454;2023-06-24T12:43:28;28.10;95.70
19799;DHT22;10059;59.850;10.454;2023-06-24T12:45:54;28.50;97.20
19799;DHT22;10059;59.850;10.454;2023-06-24T12:48:21;27.40;96.30
19799;DHT22;10059;59.850;10.454;2023-06-24T12:50:48;26.40;97.50
19799;DHT22;10059;59.850;10.454;2023-06-24T12:53:20;26.30;98.70
19799;DHT22;10059;59.850;10.454;2023-06-24T12:55:46;26.50;99.80
19799;DHT22;10059;59.850;10.454;2023-06-24T12:58:14;26.70;99.10
19799;DHT22;10059;59.850;10.454;2023-06-24T13:00:41;26.90;98.20
19799;DHT22;10059;59.850;10.454;2023-06-24T13:03:08;26.60;98.70
19799;DHT22;10059;59.850;10.454;2023-06-24T13:05:34;26.60;98.70
19799;DHT22;10059;59.850;10.454;2023-06-24T13:08:01;27.00;98.70
19799;DHT22;10059;59.850;10.454;2023-06-24T13:10:30;27.20;98.60
19799;DHT22;10059;59.850;10.454;2023-06-24T13:12:56;27.20;98.30
19799;DHT22;10059;59.850;10.454;2023-06-24T13:15:23;26.80;98.00
19799;DHT22;10059;59.850;10.454;2023-06-24T13:17:50;27.00;99.30
19799;DHT22;10059;59.850;10.454;2023-06-24T13:20:17;27.40;98.90
19799;DHT22;10059;59.850;10.454;2023-06-24T13:22:44;27.30;98.50
19799;DHT22;10059;59.850;10.454;2023-06-24T13:25:11;26.80;99.00
19799;DHT22;10059;59.850;10.454;2023-06-24T13:27:39;27.20;99.60
19799;DHT22;10059;59.850;10.454;2023-06-24T13:30:07;27.20;99.10
19799;DHT22;10059;59.850;10.454;2023-06-24T13:32:34;27.10;99.20
19799;DHT22;10059;59.850;10.454;2023-06-24T13:35:01;26.80;99.20
19799;DHT22;10059;59.850;10.454;2023-06-24T13:37:28;27.10;99.90
19799;DHT22;10059;59.850;10.454;2023-06-24T13:39:55;26.90;99.90
19799;DHT22;10059;59.850;10.454;2023-06-24T13:42:22;26.50;99.90
19799;DHT22;10059;59.850;10.454;2023-06-24T13:44:52;26.80;99.90
19799;DHT22;10059;59.850;10.454;2023-06-24T13:47:19;26.80;99.90
19799;DHT22;10059;59.850;10.454;2023-06-24T13:49:46;26.50;99.90
19799;DHT22;10059;59.850;10.454;2023-06-24T13:52:13;26.40;99.90
19799;DHT22;10059;59.850;10.454;2023-06-24T13:54:40;26.50;99.90
19799;DHT22;10059;59.850;10.454;2023-06-24T13:57:07;26.60;99.90
19799;DHT22;10059;59.850;10.454;2023-06-24T13:59:34;27.00;99.90
19799;DHT22;10059;59.850;10.454;2023-06-24T14:02:02;26.40;99.90
19799;DHT22;10059;59.850;10.454;2023-06-24T14:04:29;26.60;99.90
19799;DHT22;10059;59.850;10.454;2023-06-24T14:06:56;26.00;99.90
19799;DHT22;10059;59.850;10.454;2023-06-24T14:09:23;25.80;99.90
19799;DHT22;10059;59.850;10.454;2023-06-24T14:11:50;25.80;99.90
19799;DHT22;10059;59.850;10.454;2023-06-24T14:14:18;26.10;99.90
19799;DHT22;10059;59.850;10.454;2023-06-24T14:16:44;26.00;99.90
19799;DHT22;10059;59.850;10.454;2023-06-24T14:19:13;25.30;99.90
19799;DHT22;10059;59.850;10.454;2023-06-24T14:21:40;25.60;99.90
19799;DHT22;10059;59.850;10.454;2023-06-24T14:24:07;25.40;99.90
19799;DHT22;10059;59.850;10.454;2023-06-24T14:26:35;25.70;99.90
19799;DHT22;10059;59.850;10.454;2023-06-24T14:29:03;26.00;99.90
19799;DHT22;10059;59.850;10.454;2023-06-24T14:31:30;26.00;99.90
19799;DHT22;10059;59.850;10.454;2023-06-24T14:33:57;26.40;99.90
19799;DHT22;10059;59.850;10.454;2023-06-24T14:36:25;26.90;99.90
19799;DHT22;10059;59.850;10.454;2023-06-24T14:38:52;26.80;99.90
19799;DHT22;10059;59.850;10.454;2023-06-24T14:41:19;26.70;99.90
19799;DHT22;10059;59.850;10.454;2023-06-24T14:43:45;25.80;99.90
19799;DHT22;10059;59.850;10.454;2023-06-24T14:46:12;25.50;99.90
19799;DHT22;10059;59.850;10.454;2023-06-24T14:48:39;25.70;99.90
19799;DHT22;10059;59.850;10.454;2023-06-24T14:51:06;25.70;99.90
19799;DHT22;10059;59.850;10.454;2023-06-24T14:53:34;26.10;99.90
19799;DHT22;10059;59.850;10.454;2023-06-24T14:56:01;26.20;99.90
19799;DHT22;10059;59.850;10.454;2023-06-24T14:58:28;26.30;99.90
19799;DHT22;10059;59.850;10.454;2023-06-24T15:00:54;26.80;99.90
19799;DHT22;10059;59.850;10.454;2023-06-24T15:03:21;27.30;99.90
19799;DHT22;10059;59.850;10.454;2023-06-24T15:05:48;27.20;99.90
19799;DHT22;10059;59.850;10.454;2023-06-24T15:08:15;26.90;99.90
19799;DHT22;10059;59.850;10.454;2023-06-24T15:10:43;26.20;99.90
19799;DHT22;10059;59.850;10.454;2023-06-24T15:13:10;26.10;99.90
19799;DHT22;10059;59.850;10.454;2023-06-24T15:15:37;26.00;99.90
19799;DHT22;10059;59.850;10.454;2023-06-24T15:18:04;25.90;99.90
19799;DHT22;10059;59.850;10.454;2023-06-24T15:20:31;25.60;99.90
19799;DHT22;10059;59.850;10.454;2023-06-24T15:22:58;25.50;99.90